createdAt,value
2022-12-11T00:01:11.014Z,73.97
2022-12-11T00:03:39.741Z,74.45
2022-12-11T00:06:10.157Z,69.07
2022-12-11T00:08:40.000Z,78.47
2022-12-11T00:11:12.373Z,69.35
2022-12-11T00:13:40.342Z,72.05
2022-12-11T00:16:08.474Z,72.32
2022-12-11T00:18:36.151Z,80.55
2022-12-11T00:21:05.798Z,76.78
2022-12-11T00:23:35.560Z,75.60
2022-12-11T00:26:06.984Z,77.78
2022-12-11T00:28:34.343Z,83.20
2022-12-11T00:31:09.946Z,79.30
2022-12-11T00:33:37.254Z,78.85
2022-12-11T00:36:10.748Z,75.75
2022-12-11T00:38:38.046Z,74.45
2022-12-11T00:41:09.293Z,76.85
2022-12-11T00:43:36.843Z,68.63
2022-12-11T00:46:04.323Z,73.05
2022-12-11T00:48:31.829Z,75.35
2022-12-11T00:50:59.452Z,73.00
2022-12-11T00:53:26.936Z,73.57
2022-12-11T00:55:54.137Z,78.97
2022-12-11T00:58:22.069Z,78.75
2022-12-11T01:00:49.961Z,86.05
2022-12-11T01:03:17.898Z,85.03
2022-12-11T01:05:55.146Z,84.40
2022-12-11T01:08:22.625Z,81.10
2022-12-11T01:10:50.128Z,76.50
2022-12-11T01:13:17.687Z,70.15
2022-12-11T01:15:45.762Z,73.97
2022-12-11T01:18:15.210Z,74.97
2022-12-11T01:20:43.121Z,73.07
2022-12-11T01:23:13.851Z,73.85
2022-12-11T01:25:42.362Z,70.95
2022-12-11T01:28:10.087Z,69.18
2022-12-11T01:30:37.529Z,62.83
2022-12-11T01:33:04.844Z,65.60
2022-12-11T01:35:32.552Z,68.88
2022-12-11T01:37:59.860Z,68.82
2022-12-11T01:40:27.305Z,68.05
2022-12-11T01:42:54.524Z,70.15
2022-12-11T01:45:22.494Z,75.30
2022-12-11T01:48:00.917Z,74.85
2022-12-11T01:50:30.172Z,77.47
2022-12-11T01:52:57.798Z,73.03
2022-12-11T01:55:25.220Z,77.45
2022-12-11T01:57:53.166Z,73.38
2022-12-11T02:00:21.148Z,77.20
2022-12-11T02:02:48.440Z,74.25
2022-12-11T02:05:16.044Z,75.57
2022-12-11T02:07:59.464Z,76.03
2022-12-11T02:10:39.749Z,76.63
2022-12-11T02:13:32.415Z,74.10
2022-12-11T02:16:02.715Z,75.78
2022-12-11T02:18:41.933Z,69.85
2022-12-11T02:21:19.071Z,70.80
2022-12-11T02:24:14.235Z,69.25
2022-12-11T02:26:44.592Z,62.95
2022-12-11T02:29:22.664Z,68.38
2022-12-11T02:32:12.256Z,54.60
2022-12-11T02:34:43.010Z,64.28
2022-12-11T02:37:16.469Z,63.22
2022-12-11T02:39:45.437Z,67.25
2022-12-11T02:42:14.889Z,65.00
2022-12-11T02:44:42.730Z,59.45
2022-12-11T02:47:12.967Z,59.28
2022-12-11T02:49:43.145Z,56.05
2022-12-11T02:52:14.042Z,55.70
2022-12-11T02:54:43.898Z,47.97
2022-12-11T02:57:16.791Z,45.40
2022-12-11T02:59:45.800Z,45.67
2022-12-11T03:02:15.332Z,46.72
2022-12-11T03:04:44.280Z,43.70
2022-12-11T03:07:23.357Z,41.63
2022-12-11T03:09:51.176Z,37.45
2022-12-11T03:12:27.541Z,36.60
2022-12-11T03:18:05.052Z,30.95
2022-12-11T03:20:43.318Z,28.92
2022-12-11T03:23:47.627Z,26.30
2022-12-11T03:26:17.155Z,22.30
2022-12-11T03:29:05.862Z,19.85
2022-12-11T03:31:42.484Z,19.85
2022-12-11T03:34:16.277Z,25.17
2022-12-11T03:36:45.635Z,27.50
2022-12-11T03:39:19.048Z,24.08
2022-12-11T03:42:12.579Z,26.90
2022-12-11T03:44:41.119Z,24.85
2022-12-11T03:47:10.123Z,19.52
2022-12-11T03:49:42.018Z,16.33
2022-12-11T03:52:15.429Z,15.77
2022-12-11T03:54:47.490Z,9.77
2022-12-11T03:57:19.400Z,6.53
2022-12-11T03:59:46.807Z,4.15
2022-12-11T04:02:14.085Z,4.13
2022-12-11T04:04:42.333Z,3.15
2022-12-11T04:07:09.666Z,2.55
2022-12-11T04:09:37.272Z,2.35
2022-12-11T04:12:04.689Z,2.28
2022-12-11T04:14:58.141Z,2.22
2022-12-11T04:17:43.795Z,1.45
2022-12-11T04:20:30.410Z,2.03
2022-12-11T04:23:16.751Z,1.65
2022-12-11T04:25:44.174Z,2.50
2022-12-11T04:28:11.440Z,1.30
2022-12-11T04:30:38.764Z,1.48
2022-12-11T04:33:06.781Z,1.30
2022-12-11T04:35:34.098Z,1.92
2022-12-11T04:38:01.386Z,2.15
2022-12-11T04:40:28.731Z,1.45
2022-12-11T04:42:56.034Z,3.63
2022-12-11T04:45:23.334Z,2.72
2022-12-11T04:47:50.748Z,1.10
2022-12-11T04:50:18.495Z,1.83
2022-12-11T04:52:45.777Z,1.35
2022-12-11T04:55:13.678Z,0.85
2022-12-11T04:57:41.915Z,0.50
2022-12-11T05:00:11.409Z,1.30
2022-12-11T05:02:40.951Z,0.95
2022-12-11T05:05:10.708Z,1.40
2022-12-11T05:07:38.687Z,0.77
2022-12-11T05:10:06.563Z,1.85
2022-12-11T05:12:33.898Z,1.52
2022-12-11T05:15:01.135Z,1.35
2022-12-11T05:17:28.383Z,1.85
2022-12-11T05:19:55.583Z,1.17
2022-12-11T05:22:22.804Z,1.02
2022-12-11T05:24:50.104Z,1.23
2022-12-11T05:27:21.882Z,1.48
2022-12-11T05:29:49.096Z,1.23
2022-12-11T05:32:16.961Z,1.02
2022-12-11T05:34:44.217Z,1.52
2022-12-11T05:37:11.624Z,0.80
2022-12-11T05:39:39.198Z,1.38
2022-12-11T05:42:06.461Z,0.88
2022-12-11T05:44:33.861Z,1.10
2022-12-11T05:47:01.314Z,1.50
2022-12-11T05:49:30.986Z,1.23
2022-12-11T05:51:58.622Z,0.77
2022-12-11T05:54:25.924Z,1.00
2022-12-11T05:56:53.421Z,0.55
2022-12-11T05:59:21.022Z,0.80
2022-12-11T06:01:48.359Z,1.17
2022-12-11T06:04:15.818Z,0.80
2022-12-11T06:06:43.871Z,0.60
2022-12-11T06:09:15.456Z,0.85
2022-12-11T06:11:43.111Z,0.63
2022-12-11T06:14:11.370Z,0.95
2022-12-11T06:16:38.800Z,1.20
2022-12-11T06:19:06.106Z,0.50
2022-12-11T06:21:34.101Z,1.65
2022-12-11T06:24:03.722Z,0.50
2022-12-11T06:26:32.087Z,1.30
2022-12-11T06:28:59.924Z,0.50
2022-12-11T06:31:27.359Z,1.13
2022-12-11T06:33:54.826Z,0.75
2022-12-11T06:36:23.923Z,1.15
2022-12-11T06:38:52.251Z,0.70
2022-12-11T06:41:19.696Z,0.45
2022-12-11T06:43:47.567Z,0.70
2022-12-11T06:46:19.373Z,0.70
2022-12-11T06:48:47.985Z,0.68
2022-12-11T06:51:20.675Z,0.50
2022-12-11T06:53:55.041Z,0.60
2022-12-11T06:56:23.618Z,0.40
2022-12-11T06:58:51.975Z,0.50
2022-12-11T07:01:22.198Z,0.40
2022-12-11T07:05:03.429Z,0.60
2022-12-11T07:07:30.703Z,0.40
2022-12-11T07:10:01.511Z,0.52
2022-12-11T07:12:33.178Z,1.13
2022-12-11T07:15:00.409Z,1.27
2022-12-11T07:17:29.460Z,0.63
2022-12-11T07:19:56.828Z,0.50
2022-12-11T07:22:24.112Z,0.50
2022-12-11T07:24:51.386Z,0.57
2022-12-11T07:27:18.657Z,0.57
2022-12-11T07:29:45.919Z,0.40
2022-12-11T07:32:13.284Z,1.02
2022-12-11T07:34:40.782Z,0.70
2022-12-11T07:37:08.081Z,2.20
2022-12-11T07:39:35.444Z,11.20
2022-12-11T07:42:02.700Z,14.20
2022-12-11T07:44:30.226Z,11.07
2022-12-11T07:46:57.680Z,6.28
2022-12-11T07:49:25.323Z,5.28
2022-12-11T07:51:52.654Z,8.20
2022-12-11T07:54:20.982Z,5.53
2022-12-11T07:56:53.447Z,7.10
2022-12-11T07:59:21.341Z,3.42
2022-12-11T08:01:48.602Z,3.58
2022-12-11T08:04:16.072Z,2.03
2022-12-11T08:06:43.778Z,1.67
2022-12-11T08:09:20.641Z,1.20
2022-12-11T08:11:50.553Z,3.28
2022-12-11T08:14:18.539Z,1.70
2022-12-11T08:16:45.810Z,1.33
2022-12-11T08:19:13.899Z,3.67
2022-12-11T08:21:41.491Z,1.42
2022-12-11T08:24:10.071Z,1.60
2022-12-11T08:26:37.303Z,1.75
2022-12-11T08:29:04.792Z,3.45
2022-12-11T08:31:33.701Z,2.70
2022-12-11T08:34:01.042Z,3.55
2022-12-11T08:36:28.489Z,2.72
2022-12-11T08:38:56.311Z,4.50
2022-12-11T08:41:29.355Z,15.68
2022-12-11T08:43:58.436Z,12.35
2022-12-11T08:46:27.804Z,13.73
2022-12-11T08:48:56.363Z,30.20
2022-12-11T08:51:26.570Z,26.00
2022-12-11T08:53:59.156Z,7.45
2022-12-11T08:56:30.114Z,5.38
2022-12-11T08:59:00.946Z,8.30
2022-12-11T09:01:28.628Z,6.75
2022-12-11T09:03:57.060Z,5.65
2022-12-11T09:06:27.686Z,3.38
2022-12-11T09:08:56.205Z,2.42
2022-12-11T09:11:27.269Z,3.50
2022-12-11T09:13:54.987Z,2.58
2022-12-11T09:16:24.818Z,4.90
2022-12-11T09:19:03.432Z,2.53
2022-12-11T09:21:31.013Z,3.30
2022-12-11T09:27:29.182Z,3.17
2022-12-11T09:29:56.502Z,3.72
2022-12-11T09:32:23.778Z,5.55
2022-12-11T09:34:56.275Z,13.90
2022-12-11T09:37:23.633Z,8.43
2022-12-11T09:39:50.917Z,4.93
2022-12-11T09:42:49.196Z,6.00
2022-12-11T09:45:25.751Z,4.10
2022-12-11T09:47:56.508Z,14.13
2022-12-11T09:50:27.188Z,7.75
2022-12-11T09:53:03.595Z,8.63
2022-12-11T09:58:37.193Z,5.68
2022-12-11T10:01:22.159Z,3.50
2022-12-11T10:04:24.989Z,7.90
2022-12-11T10:07:09.994Z,5.15
2022-12-11T10:09:50.503Z,6.68
2022-12-11T10:13:11.439Z,7.60
2022-12-11T10:15:49.488Z,6.20
2022-12-11T10:18:21.252Z,5.78
2022-12-11T10:20:50.807Z,6.95
2022-12-11T10:23:22.156Z,5.15
2022-12-11T10:26:02.859Z,5.70
2022-12-11T10:28:30.345Z,4.78
2022-12-11T10:31:10.825Z,5.38
2022-12-11T10:34:00.627Z,7.25
2022-12-11T10:36:35.225Z,6.25
2022-12-11T10:39:03.715Z,8.90
2022-12-11T10:41:39.046Z,6.35
2022-12-11T10:44:23.379Z,5.88
2022-12-11T10:47:06.733Z,7.07
2022-12-11T10:49:36.450Z,10.48
2022-12-11T10:52:34.014Z,6.90
2022-12-11T10:55:08.802Z,6.55
2022-12-11T10:57:39.097Z,10.75
2022-12-11T11:00:26.654Z,10.40
2022-12-11T11:02:55.026Z,8.65
2022-12-11T11:05:36.527Z,10.55
2022-12-11T11:08:19.827Z,9.98
2022-12-11T11:11:05.824Z,7.40
2022-12-11T11:13:33.039Z,7.47
2022-12-11T11:16:06.808Z,8.95
2022-12-11T11:18:34.969Z,6.80
2022-12-11T11:21:03.144Z,6.93
2022-12-11T11:23:36.722Z,10.18
2022-12-11T11:26:08.185Z,5.45
2022-12-11T11:28:40.649Z,8.15
2022-12-11T11:31:16.142Z,7.15
2022-12-11T11:33:58.800Z,7.18
2022-12-11T11:36:28.799Z,7.82
2022-12-11T11:39:14.597Z,7.57
2022-12-11T11:41:58.486Z,9.25
2022-12-11T11:44:33.765Z,8.68
2022-12-11T11:47:24.232Z,8.98
2022-12-11T11:50:12.689Z,9.07
2022-12-11T11:52:59.995Z,7.80
2022-12-11T11:55:37.769Z,6.35
2022-12-11T11:58:13.145Z,7.18
2022-12-11T12:00:40.519Z,8.38
2022-12-11T12:03:17.307Z,7.63
2022-12-11T12:06:15.633Z,7.93
2022-12-11T12:08:45.682Z,8.13
2022-12-11T12:11:34.259Z,7.93
2022-12-11T12:14:50.711Z,6.80
2022-12-11T12:17:12.986Z,8.75
2022-12-11T12:19:55.455Z,6.60
2022-12-11T12:22:46.851Z,7.85
2022-12-11T12:25:32.301Z,7.97
2022-12-11T12:28:08.606Z,6.88
2022-12-11T12:31:10.147Z,10.23
2022-12-11T12:33:59.137Z,32.28
2022-12-11T12:36:41.368Z,26.23
2022-12-11T12:39:28.474Z,15.35
2022-12-11T12:42:28.470Z,53.10
2022-12-11T12:44:56.271Z,17.05
2022-12-11T12:47:26.720Z,8.38
2022-12-11T12:49:55.537Z,7.60
2022-12-11T12:52:35.451Z,4.78
2022-12-11T12:55:24.855Z,5.25
2022-12-11T12:57:56.026Z,5.03
2022-12-11T13:00:38.564Z,6.53
2022-12-11T13:03:20.432Z,3.25
2022-12-11T13:06:03.436Z,3.65
2022-12-11T13:08:40.961Z,4.80
2022-12-11T13:11:12.053Z,3.83
2022-12-11T13:13:42.700Z,3.47
2022-12-11T13:16:16.015Z,4.50
2022-12-11T13:18:45.713Z,3.70
2022-12-11T13:21:28.059Z,4.25
2022-12-11T13:24:06.906Z,4.13
2022-12-11T13:26:34.375Z,7.50
2022-12-11T13:29:01.596Z,4.35
2022-12-11T13:31:37.634Z,7.60
2022-12-11T13:34:22.316Z,3.30
2022-12-11T13:36:52.387Z,3.38
2022-12-11T13:39:32.222Z,3.50
2022-12-11T13:42:13.107Z,3.28
2022-12-11T13:44:48.643Z,3.83
2022-12-11T13:47:18.762Z,3.78
2022-12-11T13:49:51.960Z,5.78
2022-12-11T13:56:39.788Z,4.78
2022-12-11T13:59:30.879Z,5.47
2022-12-11T14:02:38.202Z,7.20
2022-12-11T14:05:11.458Z,7.50
2022-12-11T14:10:27.241Z,6.40
2022-12-11T14:13:06.330Z,5.32
2022-12-11T14:15:36.116Z,5.85
2022-12-11T14:18:06.236Z,6.13
2022-12-11T14:20:37.741Z,7.50
2022-12-11T14:23:19.752Z,7.63
2022-12-11T14:25:53.761Z,6.07
2022-12-11T14:28:21.781Z,5.18
2022-12-11T14:30:51.904Z,7.93
2022-12-11T14:33:22.869Z,6.03
2022-12-11T14:35:56.734Z,6.47
2022-12-11T14:38:28.628Z,6.30
2022-12-11T14:41:03.410Z,5.95
2022-12-11T14:43:38.347Z,5.13
2022-12-11T14:46:14.206Z,5.90
2022-12-11T14:48:53.849Z,6.80
2022-12-11T14:51:28.654Z,6.50
2022-12-11T14:53:56.267Z,8.30
2022-12-11T14:56:27.407Z,7.70
2022-12-11T14:59:09.191Z,6.28
2022-12-11T15:01:38.665Z,5.85
2022-12-11T15:04:07.766Z,4.93
2022-12-11T15:06:43.837Z,5.28
2022-12-11T15:09:26.176Z,5.97
2022-12-11T15:11:56.883Z,14.95
2022-12-11T15:14:25.926Z,20.90
2022-12-11T15:16:56.280Z,13.10
2022-12-11T15:19:30.654Z,11.45
2022-12-11T15:22:03.980Z,10.18
2022-12-11T15:24:38.421Z,6.73
2022-12-11T15:27:06.412Z,5.40
2022-12-11T15:29:35.514Z,6.17
2022-12-11T15:32:10.698Z,6.17
2022-12-11T15:34:50.166Z,7.22
2022-12-11T15:37:40.005Z,6.97
2022-12-11T15:40:07.849Z,5.93
2022-12-11T15:42:42.819Z,5.87
2022-12-11T15:45:21.089Z,6.90
2022-12-11T15:47:49.534Z,7.47
2022-12-11T15:50:28.882Z,7.05
2022-12-11T15:52:57.247Z,5.00
2022-12-11T15:55:27.146Z,14.73
2022-12-11T15:58:00.451Z,7.30
2022-12-11T16:00:28.197Z,5.60
2022-12-11T16:02:57.141Z,6.13
2022-12-11T16:05:25.501Z,6.43
2022-12-11T16:07:54.736Z,5.28
2022-12-11T16:10:22.336Z,7.55
2022-12-11T16:12:50.328Z,6.75
2022-12-11T16:15:23.735Z,4.83
2022-12-11T16:18:00.350Z,5.13
2022-12-11T16:20:28.157Z,6.32
2022-12-11T16:22:55.368Z,7.03
2022-12-11T16:25:28.739Z,5.18
2022-12-11T16:27:57.975Z,6.10
2022-12-11T16:30:26.468Z,6.22
2022-12-11T16:33:01.387Z,5.68
2022-12-11T16:35:29.516Z,6.65
2022-12-11T16:37:57.629Z,6.85
2022-12-11T16:40:58.334Z,7.70
2022-12-11T16:43:28.506Z,5.53
2022-12-11T16:45:56.145Z,14.32
2022-12-11T16:48:23.602Z,9.93
2022-12-11T16:50:54.412Z,7.38
2022-12-11T16:53:22.512Z,7.60
2022-12-11T16:55:50.359Z,5.35
2022-12-11T16:58:21.215Z,5.75
2022-12-11T17:00:49.317Z,4.72
2022-12-11T17:03:16.697Z,4.78
2022-12-11T17:05:44.201Z,6.45
2022-12-11T17:08:12.958Z,6.53
2022-12-11T17:10:41.573Z,6.10
2022-12-11T17:13:09.988Z,6.45
2022-12-11T17:15:43.942Z,6.38
2022-12-11T17:18:11.873Z,7.65
2022-12-11T17:20:43.865Z,6.63
2022-12-11T17:23:11.844Z,7.75
2022-12-11T17:25:44.740Z,8.48
2022-12-11T17:28:13.133Z,6.90
2022-12-11T17:30:45.303Z,7.72
2022-12-11T17:33:12.590Z,6.93
2022-12-11T17:35:39.855Z,7.10
2022-12-11T17:38:07.570Z,7.13
2022-12-11T17:40:35.159Z,7.20
2022-12-11T17:43:06.266Z,8.93
2022-12-11T17:45:33.579Z,8.68
2022-12-11T17:48:00.830Z,9.48
2022-12-11T17:50:28.309Z,8.73
2022-12-11T17:52:59.136Z,10.38
2022-12-11T17:55:26.959Z,9.45
2022-12-11T17:57:57.921Z,10.38
2022-12-11T18:00:31.567Z,11.32
2022-12-11T18:03:05.449Z,8.60
2022-12-11T18:05:38.672Z,11.38
2022-12-11T18:08:06.413Z,9.02
2022-12-11T18:10:40.130Z,8.52
2022-12-11T18:13:07.523Z,8.30
2022-12-11T18:15:35.075Z,7.72
2022-12-11T18:18:02.286Z,8.13
2022-12-11T18:20:31.167Z,7.75
2022-12-11T18:22:58.879Z,8.40
2022-12-11T18:25:26.481Z,7.22
2022-12-11T18:27:55.123Z,8.63
2022-12-11T18:30:24.212Z,7.22
2022-12-11T18:32:52.016Z,8.07
2022-12-11T18:35:19.553Z,7.78
2022-12-11T18:37:46.909Z,8.07
2022-12-11T18:40:14.204Z,10.50
2022-12-11T18:42:41.491Z,12.95
2022-12-11T18:45:09.552Z,14.43
2022-12-11T18:47:37.359Z,13.13
2022-12-11T18:50:07.979Z,12.45
2022-12-11T18:52:35.599Z,13.25
2022-12-11T18:55:02.867Z,12.75
2022-12-11T18:57:30.190Z,13.57
2022-12-11T19:00:02.290Z,14.45
2022-12-11T19:02:29.599Z,12.88
2022-12-11T19:04:57.407Z,14.13
2022-12-11T19:07:24.673Z,15.25
2022-12-11T19:09:55.866Z,12.90
2022-12-11T19:12:23.086Z,13.55
2022-12-11T19:14:50.322Z,14.48
2022-12-11T19:17:17.609Z,13.70
2022-12-11T19:19:47.413Z,15.32
2022-12-11T19:22:15.001Z,16.85
2022-12-11T19:24:42.284Z,15.75
2022-12-11T19:27:13.402Z,13.68
2022-12-11T19:29:41.284Z,13.68
2022-12-11T19:32:08.695Z,13.35
2022-12-11T19:34:38.356Z,12.73
2022-12-11T19:37:05.773Z,13.70
2022-12-11T19:39:33.166Z,13.88
2022-12-11T19:42:00.556Z,12.35
2022-12-11T19:44:27.927Z,13.35
2022-12-11T19:46:55.202Z,13.48
2022-12-11T19:49:23.293Z,13.48
2022-12-11T19:51:51.334Z,15.05
2022-12-11T19:54:18.823Z,15.27
2022-12-11T19:56:46.212Z,18.52
2022-12-11T19:59:16.629Z,16.30
2022-12-11T20:01:47.792Z,15.20
2022-12-11T20:04:17.407Z,18.98
2022-12-11T20:06:46.698Z,18.13
2022-12-11T20:09:14.605Z,19.73
2022-12-11T20:11:44.053Z,20.48
2022-12-11T20:14:20.520Z,19.73
2022-12-11T20:19:35.691Z,17.00
2022-12-11T20:22:02.944Z,19.58
2022-12-11T20:24:30.379Z,17.45
2022-12-11T20:26:58.191Z,18.48
2022-12-11T20:29:25.648Z,20.58
2022-12-11T20:31:53.010Z,16.85
2022-12-11T20:34:20.417Z,17.83
2022-12-11T20:36:48.737Z,17.55
2022-12-11T20:39:16.095Z,16.15
2022-12-11T20:41:43.769Z,16.45
2022-12-11T20:44:11.078Z,14.77
2022-12-11T20:46:38.566Z,18.95
2022-12-11T20:49:12.754Z,18.85
2022-12-11T20:51:40.816Z,15.45
2022-12-11T20:54:08.310Z,15.60
2022-12-11T20:56:36.147Z,16.20
2022-12-11T20:59:03.433Z,16.17
2022-12-11T21:01:32.603Z,19.05
2022-12-11T21:04:00.805Z,18.65
2022-12-11T21:06:33.519Z,16.30
2022-12-11T21:09:06.550Z,17.50
2022-12-11T21:11:34.842Z,19.10
2022-12-11T21:14:02.543Z,18.40
2022-12-11T21:16:30.149Z,17.33
2022-12-11T21:18:57.950Z,17.75
2022-12-11T21:21:26.073Z,17.85
2022-12-11T21:23:53.454Z,20.85
2022-12-11T21:26:20.850Z,17.85
2022-12-11T21:28:48.409Z,16.70
2022-12-11T21:31:18.044Z,16.77
2022-12-11T21:33:49.032Z,15.32
2022-12-11T21:36:19.970Z,15.73
2022-12-11T21:38:47.677Z,18.40
2022-12-11T21:41:21.511Z,29.50
2022-12-11T21:46:38.635Z,20.05
2022-12-11T21:49:06.027Z,17.50
2022-12-11T21:51:39.491Z,17.88
2022-12-11T21:54:14.102Z,16.35
2022-12-11T21:56:41.955Z,19.92
2022-12-11T21:59:09.684Z,19.35
2022-12-11T22:01:43.802Z,22.10
2022-12-11T22:04:12.059Z,17.65
2022-12-11T22:06:43.504Z,21.63
2022-12-11T22:09:12.933Z,19.50
2022-12-11T22:11:42.121Z,18.02
2022-12-11T22:14:14.011Z,17.55
2022-12-11T22:16:43.833Z,17.80
2022-12-11T22:19:12.618Z,18.65
2022-12-11T22:21:40.279Z,21.83
2022-12-11T22:24:18.534Z,21.00
2022-12-11T22:26:45.862Z,17.23
2022-12-11T22:29:13.567Z,18.42
2022-12-11T22:31:40.835Z,18.27
2022-12-11T22:34:13.589Z,18.52
2022-12-11T22:36:41.248Z,17.50
2022-12-11T22:39:08.452Z,16.70
2022-12-11T22:41:41.888Z,16.65
2022-12-11T22:44:17.961Z,17.95
2022-12-11T22:46:49.974Z,17.27
2022-12-11T22:49:19.482Z,20.30
2022-12-11T22:51:47.817Z,19.92
2022-12-11T22:54:15.399Z,20.13
2022-12-11T22:56:43.361Z,17.95
2022-12-11T22:59:11.273Z,17.55
2022-12-11T23:01:42.140Z,19.52
2022-12-11T23:04:10.247Z,18.63
2022-12-11T23:06:38.615Z,20.98
2022-12-11T23:09:06.660Z,21.15
2022-12-11T23:11:38.374Z,24.38
2022-12-11T23:14:12.483Z,30.50
2022-12-11T23:16:41.374Z,26.52
2022-12-11T23:19:11.605Z,20.65
2022-12-11T23:21:40.593Z,23.77
2022-12-11T23:24:09.505Z,23.48
2022-12-11T23:26:40.655Z,22.05
2022-12-11T23:29:08.403Z,20.48
2022-12-11T23:31:36.338Z,22.05
2022-12-11T23:34:08.165Z,21.80
2022-12-11T23:36:35.997Z,25.80
2022-12-11T23:39:03.691Z,20.70
2022-12-11T23:41:31.041Z,22.00
2022-12-11T23:43:59.870Z,24.17
2022-12-11T23:46:33.599Z,21.50
2022-12-11T23:49:02.408Z,24.52
2022-12-11T23:51:30.000Z,21.27
2022-12-11T23:53:57.588Z,23.48
2022-12-11T23:56:28.176Z,20.77
2022-12-11T23:58:56.591Z,21.07
